Time;durP1;ratioP1;P1;durP2;ratioP2;P2;SDS_P1;SDS_P2;PMS_P1;PMS_P2;Temp;Humidity;BMP_temperature;BMP_pressure;BME280_temperature;BME280_humidity;BME280_pressure;Samples;Min_cycle;Max_cycle;Signal;HPM_P1;HPM_P2
2024/01/20 00:01:02;;;;;;;24.55;17.80;;;;;;;;;;5095489;28;20218;-72
2024/01/20 00:03:30;;;;;;;31.15;18.70;;;;;;;;;;5093512;28;20235;-72
2024/01/20 00:05:56;;;;;;;28.65;18.25;;;;;;;;;;5092611;28;20227;-72
2024/01/20 00:08:22;;;;;;;26.13;17.17;;;;;;;;;;5092493;28;20268;-72
2024/01/20 00:10:49;;;;;;;26.33;18.33;;;;;;;;;;5092442;28;20204;-72
2024/01/20 00:13:15;;;;;;;26.25;18.23;;;;;;;;;;5093090;28;20192;-72
2024/01/20 00:15:41;;;;;;;27.88;18.30;;;;;;;;;;5092606;28;20224;-72
2024/01/20 00:18:07;;;;;;;26.60;17.63;;;;;;;;;;5093415;28;20257;-72
2024/01/20 00:20:35;;;;;;;25.20;16.58;;;;;;;;;;5094958;28;20246;-72
2024/01/20 00:23:01;;;;;;;27.80;17.80;;;;;;;;;;5094615;28;20223;-72
2024/01/20 00:25:27;;;;;;;22.77;16.17;;;;;;;;;;5094528;28;20277;-72
2024/01/20 00:27:54;;;;;;;28.15;17.27;;;;;;;;;;5094590;28;20200;-72
2024/01/20 00:30:20;;;;;;;24.77;17.42;;;;;;;;;;5094912;28;20203;-72
2024/01/20 00:32:46;;;;;;;30.65;16.73;;;;;;;;;;5094757;28;20592;-71
2024/01/20 00:35:13;;;;;;;24.67;16.73;;;;;;;;;;5094662;28;20212;-71
2024/01/20 00:37:40;;;;;;;24.63;17.40;;;;;;;;;;5094486;28;20728;-72
2024/01/20 00:40:07;;;;;;;24.67;17.00;;;;;;;;;;5094534;28;20626;-73
2024/01/20 00:42:34;;;;;;;24.58;17.38;;;;;;;;;;5095707;28;20347;-73
2024/01/20 00:45:00;;;;;;;23.58;16.30;;;;;;;;;;5095806;28;20310;-72
2024/01/20 00:47:26;;;;;;;24.42;16.00;;;;;;;;;;5097427;28;20207;-72
2024/01/20 00:49:53;;;;;;;23.35;16.08;;;;;;;;;;5094467;28;20264;-72
2024/01/20 00:52:19;;;;;;;22.98;16.23;;;;;;;;;;5094235;28;20206;-72
2024/01/20 00:54:46;;;;;;;22.80;16.20;;;;;;;;;;5093278;28;20207;-72
2024/01/20 00:57:13;;;;;;;24.73;16.55;;;;;;;;;;5094079;28;20269;-72
2024/01/20 00:59:39;;;;;;;25.98;16.45;;;;;;;;;;5094056;28;20545;-72
2024/01/20 01:02:05;;;;;;;22.65;16.48;;;;;;;;;;5094149;28;20291;-72
2024/01/20 01:04:31;;;;;;;25.13;16.65;;;;;;;;;;5094103;28;20219;-72
2024/01/20 01:06:58;;;;;;;22.88;16.58;;;;;;;;;;5093897;28;20232;-72
2024/01/20 01:09:24;;;;;;;26.45;16.65;;;;;;;;;;5093660;28;20234;-72
2024/01/20 01:11:51;;;;;;;28.90;18.00;;;;;;;;;;5093663;28;20241;-72
2024/01/20 01:14:18;;;;;;;25.85;17.00;;;;;;;;;;5093648;28;20722;-72
2024/01/20 01:16:44;;;;;;;24.00;16.98;;;;;;;;;;5093553;28;20281;-72
2024/01/20 01:19:10;;;;;;;28.23;17.55;;;;;;;;;;5093348;28;20245;-72
2024/01/20 01:21:36;;;;;;;24.35;17.05;;;;;;;;;;5093508;28;20207;-73
2024/01/20 01:24:03;;;;;;;25.40;16.92;;;;;;;;;;5093514;28;20219;-71
2024/01/20 01:26:29;;;;;;;26.50;17.42;;;;;;;;;;5093654;28;20269;-72
2024/01/20 01:28:56;;;;;;;23.60;16.95;;;;;;;;;;5093364;28;20203;-72
2024/01/20 01:31:22;;;;;;;24.45;18.20;;;;;;;;;;5093525;28;20199;-72
2024/01/20 01:33:48;;;;;;;29.65;18.10;;;;;;;;;;5093378;28;20268;-72
2024/01/20 01:36:14;;;;;;;23.67;17.23;;;;;;;;;;5093421;28;20276;-72
2024/01/20 01:38:41;;;;;;;28.08;17.75;;;;;;;;;;5093532;28;20203;-72
2024/01/20 01:41:07;;;;;;;25.17;17.02;;;;;;;;;;5093383;28;20203;-72
2024/01/20 01:43:33;;;;;;;24.00;16.77;;;;;;;;;;5093322;28;20220;-71
2024/01/20 01:46:01;;;;;;;25.45;16.70;;;;;;;;;;5093233;28;20220;-71
2024/01/20 01:48:27;;;;;;;26.88;16.58;;;;;;;;;;5093286;28;20733;-71
2024/01/20 01:50:54;;;;;;;25.08;16.77;;;;;;;;;;5093117;28;20214;-72
2024/01/20 01:53:20;;;;;;;22.15;15.63;;;;;;;;;;5093210;28;20200;-72
2024/01/20 01:55:47;;;;;;;26.77;17.48;;;;;;;;;;5093484;28;20223;-72
2024/01/20 01:58:13;;;;;;;26.00;17.85;;;;;;;;;;5093017;28;20221;-72
2024/01/20 02:00:40;;;;;;;26.70;17.40;;;;;;;;;;5093118;28;20196;-72
2024/01/20 02:03:08;;;;;;;25.98;16.27;;;;;;;;;;5092900;28;20208;-72
2024/01/20 02:05:34;;;;;;;27.25;17.90;;;;;;;;;;5092691;28;20223;-72
2024/01/20 02:08:01;;;;;;;22.58;16.52;;;;;;;;;;5092866;28;20245;-72
2024/01/20 02:10:27;;;;;;;25.15;16.88;;;;;;;;;;5092997;28;20244;-72
2024/01/20 02:12:54;;;;;;;25.80;17.58;;;;;;;;;;5092880;28;20203;-72
2024/01/20 02:15:20;;;;;;;25.30;17.27;;;;;;;;;;5093024;28;20224;-72
2024/01/20 02:17:50;;;;;;;25.70;16.88;;;;;;;;;;5092912;28;20671;-71
2024/01/20 02:20:18;;;;;;;23.88;16.05;;;;;;;;;;5092776;28;20629;-72
2024/01/20 02:22:45;;;;;;;27.45;17.40;;;;;;;;;;5092643;28;20261;-72
2024/01/20 02:25:12;;;;;;;26.25;17.17;;;;;;;;;;5092443;28;20227;-72
2024/01/20 02:27:38;;;;;;;22.83;16.73;;;;;;;;;;5092483;28;20199;-72
2024/01/20 02:30:05;;;;;;;23.73;15.73;;;;;;;;;;5092464;28;20289;-72
2024/01/20 02:32:31;;;;;;;23.52;16.30;;;;;;;;;;5092348;28;20200;-72
2024/01/20 02:34:58;;;;;;;26.95;17.67;;;;;;;;;;5092709;28;20204;-72
2024/01/20 02:37:24;;;;;;;26.30;16.02;;;;;;;;;;5092261;28;20196;-72
2024/01/20 02:39:51;;;;;;;25.17;16.67;;;;;;;;;;5085325;28;20204;-72
2024/01/20 02:42:18;;;;;;;27.92;17.27;;;;;;;;;;5090846;28;20225;-72
2024/01/20 02:44:44;;;;;;;27.20;17.27;;;;;;;;;;5092185;28;20594;-72
2024/01/20 02:47:10;;;;;;;29.25;16.98;;;;;;;;;;5091995;28;20227;-72
2024/01/20 02:49:36;;;;;;;25.13;17.27;;;;;;;;;;5092385;28;20203;-72
2024/01/20 02:52:03;;;;;;;25.67;16.10;;;;;;;;;;5092172;28;20196;-72
2024/01/20 02:54:29;;;;;;;25.70;17.10;;;;;;;;;;5092237;28;20709;-72
2024/01/20 02:56:57;;;;;;;30.95;18.20;;;;;;;;;;5092134;28;20269;-72
2024/01/20 02:59:23;;;;;;;28.10;17.85;;;;;;;;;;5092049;28;20277;-72
2024/01/20 03:01:49;;;;;;;32.47;18.50;;;;;;;;;;5092323;28;20271;-72
2024/01/20 03:04:15;;;;;;;28.40;18.05;;;;;;;;;;5092250;28;20219;-72
2024/01/20 03:06:42;;;;;;;29.77;19.42;;;;;;;;;;5092015;28;20275;-72
2024/01/20 03:09:08;;;;;;;30.02;18.83;;;;;;;;;;5092199;28;20233;-72
2024/01/20 03:11:34;;;;;;;29.38;18.95;;;;;;;;;;5092320;28;20684;-72
2024/01/20 03:14:02;;;;;;;28.65;19.38;;;;;;;;;;5091943;28;20196;-72
2024/01/20 03:16:28;;;;;;;24.90;18.05;;;;;;;;;;5092233;28;20235;-72
2024/01/20 03:18:54;;;;;;;24.60;17.83;;;;;;;;;;5096419;28;20253;-72
2024/01/20 03:21:21;;;;;;;27.45;17.77;;;;;;;;;;5096203;28;20208;-72
2024/01/20 03:23:47;;;;;;;27.90;18.08;;;;;;;;;;5095938;28;20226;-72
2024/01/20 03:26:13;;;;;;;27.13;19.27;;;;;;;;;;5096216;28;20276;-72
2024/01/20 03:28:40;;;;;;;29.88;18.08;;;;;;;;;;5095597;28;20226;-72
2024/01/20 03:31:08;;;;;;;28.88;18.95;;;;;;;;;;5096028;28;20203;-72
2024/01/20 03:33:35;;;;;;;29.85;19.20;;;;;;;;;;5095709;28;20203;-72
2024/01/20 03:36:01;;;;;;;26.77;16.67;;;;;;;;;;5095939;28;20220;-72
2024/01/20 03:38:27;;;;;;;26.27;18.38;;;;;;;;;;5095942;28;20278;-72
2024/01/20 03:40:54;;;;;;;28.65;18.17;;;;;;;;;;5095863;28;20200;-72
2024/01/20 03:43:20;;;;;;;25.50;17.42;;;;;;;;;;5095631;28;20204;-72
2024/01/20 03:45:46;;;;;;;28.08;17.98;;;;;;;;;;5099714;28;20232;-72
2024/01/20 03:48:14;;;;;;;27.63;18.23;;;;;;;;;;5102560;28;20249;-72
2024/01/20 03:50:40;;;;;;;28.25;18.35;;;;;;;;;;5101495;28;20204;-72
2024/01/20 03:53:06;;;;;;;26.38;18.27;;;;;;;;;;5100516;28;20690;-72
2024/01/20 03:55:33;;;;;;;34.67;20.08;;;;;;;;;;5104865;28;20219;-72
2024/01/20 03:57:59;;;;;;;33.00;19.98;;;;;;;;;;5102820;28;20204;-73
2024/01/20 04:00:25;;;;;;;29.98;19.67;;;;;;;;;;5101793;28;20199;-72
2024/01/20 04:02:51;;;;;;;29.23;19.75;;;;;;;;;;5103136;28;20204;-72
2024/01/20 04:05:19;;;;;;;25.17;17.95;;;;;;;;;;5097595;28;20224;-72
2024/01/20 04:07:46;;;;;;;29.95;18.85;;;;;;;;;;5097861;28;20206;-72
2024/01/20 04:10:12;;;;;;;29.13;19.17;;;;;;;;;;5097924;28;20199;-72
2024/01/20 04:12:39;;;;;;;27.83;19.25;;;;;;;;;;5096402;28;20200;-72
2024/01/20 04:15:05;;;;;;;31.52;20.08;;;;;;;;;;5096563;28;20204;-72
2024/01/20 04:17:32;;;;;;;29.90;19.48;;;;;;;;;;5097214;28;20253;-71
2024/01/20 04:19:58;;;;;;;30.25;19.15;;;;;;;;;;5096571;28;20203;-72
2024/01/20 04:22:25;;;;;;;28.50;19.65;;;;;;;;;;5096155;28;20683;-72
2024/01/20 04:24:52;;;;;;;29.00;18.88;;;;;;;;;;5095785;28;20626;-72
2024/01/20 04:27:18;;;;;;;28.35;19.65;;;;;;;;;;5095926;28;20584;-72
2024/01/20 04:29:44;;;;;;;29.25;19.48;;;;;;;;;;5094802;28;20207;-73
2024/01/20 04:32:10;;;;;;;28.73;19.80;;;;;;;;;;5096060;28;20241;-72
2024/01/20 04:34:37;;;;;;;31.25;19.48;;;;;;;;;;5095952;28;20204;-72
2024/01/20 04:37:03;;;;;;;30.77;19.77;;;;;;;;;;5095755;28;20306;-72
2024/01/20 04:39:30;;;;;;;31.45;20.33;;;;;;;;;;5095743;28;20206;-72
2024/01/20 04:41:57;;;;;;;30.95;18.90;;;;;;;;;;5095347;28;20207;-72
2024/01/20 04:44:23;;;;;;;33.10;20.55;;;;;;;;;;5095789;28;20219;-72
2024/01/20 04:46:49;;;;;;;31.40;20.95;;;;;;;;;;5095238;28;20224;-72
2024/01/20 04:49:15;;;;;;;36.05;21.60;;;;;;;;;;5094727;28;20204;-72
2024/01/20 04:51:42;;;;;;;30.35;20.42;;;;;;;;;;5094826;28;20660;-72
2024/01/20 04:54:08;;;;;;;29.75;19.48;;;;;;;;;;5094838;28;20195;-72
2024/01/20 04:56:36;;;;;;;30.73;20.10;;;;;;;;;;5094747;28;20224;-72
2024/01/20 04:59:02;;;;;;;28.83;19.75;;;;;;;;;;5094697;28;20226;-72
2024/01/20 05:01:28;;;;;;;32.33;20.05;;;;;;;;;;5094815;28;20252;-72
2024/01/20 05:03:54;;;;;;;31.40;19.58;;;;;;;;;;5094314;28;20199;-72
2024/01/20 05:06:20;;;;;;;73.90;37.40;;;;;;;;;;5094066;28;20234;-72
2024/01/20 05:08:47;;;;;;;42.03;25.33;;;;;;;;;;5093945;28;20196;-72
2024/01/20 05:11:13;;;;;;;32.45;22.25;;;;;;;;;;5094394;28;20290;-73
2024/01/20 05:13:41;;;;;;;30.15;20.00;;;;;;;;;;5094178;28;20203;-72
2024/01/20 05:16:07;;;;;;;32.72;20.45;;;;;;;;;;5094385;28;20216;-72
2024/01/20 05:18:33;;;;;;;36.42;22.55;;;;;;;;;;5094101;28;20204;-73
2024/01/20 05:21:00;;;;;;;31.60;19.63;;;;;;;;;;5093841;28;20216;-73
2024/01/20 05:23:26;;;;;;;30.38;20.88;;;;;;;;;;5093803;28;20290;-73
2024/01/20 05:25:52;;;;;;;30.40;20.77;;;;;;;;;;5093837;28;20231;-73
2024/01/20 05:28:19;;;;;;;35.63;19.48;;;;;;;;;;5093559;28;20607;-73
2024/01/20 05:30:46;;;;;;;29.00;20.52;;;;;;;;;;5093857;28;20210;-73
2024/01/20 05:33:12;;;;;;;28.88;19.42;;;;;;;;;;5093569;28;20208;-73
2024/01/20 05:35:39;;;;;;;30.90;20.77;;;;;;;;;;5093619;28;20215;-73
2024/01/20 05:38:05;;;;;;;30.45;19.27;;;;;;;;;;5093519;28;20215;-73
2024/01/20 05:40:31;;;;;;;32.83;19.38;;;;;;;;;;5093378;28;20257;-73
2024/01/20 05:42:57;;;;;;;29.25;18.98;;;;;;;;;;5093715;28;20200;-73
2024/01/20 05:45:24;;;;;;;29.50;19.95;;;;;;;;;;5093391;28;20273;-73
2024/01/20 05:47:51;;;;;;;33.35;19.83;;;;;;;;;;5093338;28;20283;-73
2024/01/20 05:50:17;;;;;;;30.30;19.83;;;;;;;;;;5093180;28;20200;-73
2024/01/20 05:52:44;;;;;;;37.08;21.35;;;;;;;;;;5093351;28;20253;-73
2024/01/20 05:55:10;;;;;;;30.50;20.13;;;;;;;;;;5093309;28;20246;-73
2024/01/20 05:57:36;;;;;;;29.70;20.85;;;;;;;;;;5093104;28;20257;-72
2024/01/20 06:00:03;;;;;;;29.20;19.38;;;;;;;;;;5093107;28;20207;-72
2024/01/20 06:02:29;;;;;;;28.20;19.65;;;;;;;;;;5093130;28;20199;-72
2024/01/20 06:04:57;;;;;;;26.80;18.73;;;;;;;;;;5092718;28;20220;-73
2024/01/20 06:07:23;;;;;;;31.35;20.92;;;;;;;;;;5093472;28;20341;-72
2024/01/20 06:09:49;;;;;;;32.72;19.50;;;;;;;;;;5093455;28;20273;-73
2024/01/20 06:12:15;;;;;;;33.83;21.40;;;;;;;;;;5093086;28;20204;-73
2024/01/20 06:14:43;;;;;;;33.55;19.77;;;;;;;;;;5092875;28;20196;-73
2024/01/20 06:17:10;;;;;;;31.52;19.80;;;;;;;;;;5092916;28;20224;-73
2024/01/20 06:19:36;;;;;;;27.83;19.10;;;;;;;;;;5092870;28;20209;-73
2024/01/20 06:22:04;;;;;;;34.10;19.45;;;;;;;;;;5092947;28;20590;-72
2024/01/20 06:24:31;;;;;;;27.27;19.20;;;;;;;;;;5092765;28;20218;-73
2024/01/20 06:26:57;;;;;;;34.25;19.33;;;;;;;;;;5092749;28;20224;-73
2024/01/20 06:29:23;;;;;;;29.67;19.25;;;;;;;;;;5092504;28;20200;-73
2024/01/20 06:31:50;;;;;;;33.13;18.80;;;;;;;;;;5092412;28;20204;-73
2024/01/20 06:34:16;;;;;;;34.17;19.00;;;;;;;;;;5092549;28;20674;-72
2024/01/20 06:36:42;;;;;;;29.33;18.80;;;;;;;;;;5092706;28;20629;-72
2024/01/20 06:39:10;;;;;;;33.25;20.67;;;;;;;;;;5092695;28;20615;-73
2024/01/20 06:41:36;;;;;;;33.60;21.15;;;;;;;;;;5092355;28;20215;-72
2024/01/20 06:44:03;;;;;;;36.30;21.15;;;;;;;;;;5092634;28;20204;-73
2024/01/20 06:46:29;;;;;;;36.55;22.23;;;;;;;;;;5092308;28;20692;-72
2024/01/20 06:48:55;;;;;;;39.78;22.92;;;;;;;;;;5092239;28;20616;-60
2024/01/20 06:51:25;;;;;;;35.70;21.77;;;;;;;;;;5092399;28;20203;-60
2024/01/20 06:53:57;;;;;;;34.40;21.35;;;;;;;;;;5096500;28;20273;-60
2024/01/20 06:56:25;;;;;;;32.47;21.08;;;;;;;;;;5096434;28;20250;-59
2024/01/20 06:58:51;;;;;;;39.35;21.90;;;;;;;;;;5096073;28;20291;-60
2024/01/20 07:01:17;;;;;;;35.78;21.88;;;;;;;;;;5096153;28;20272;-60
2024/01/20 07:03:43;;;;;;;35.28;21.90;;;;;;;;;;5096400;28;20290;-60
2024/01/20 07:06:10;;;;;;;34.95;21.45;;;;;;;;;;5096272;28;20224;-60
2024/01/20 07:08:36;;;;;;;53.72;26.85;;;;;;;;;;5096037;28;20585;-59
2024/01/20 07:11:02;;;;;;;53.47;28.70;;;;;;;;;;5096018;28;20601;-59
2024/01/20 07:13:30;;;;;;;39.05;22.77;;;;;;;;;;5095897;28;20627;-59
2024/01/20 07:15:56;;;;;;;36.90;23.17;;;;;;;;;;5095611;28;20624;-59
2024/01/20 07:18:22;;;;;;;34.08;21.50;;;;;;;;;;5095647;28;20208;-60
2024/01/20 07:20:48;;;;;;;34.50;21.60;;;;;;;;;;5095911;28;20207;-59
2024/01/20 07:23:14;;;;;;;32.42;21.13;;;;;;;;;;5095863;28;20204;-61
2024/01/20 07:25:41;;;;;;;34.35;21.15;;;;;;;;;;5095634;28;20265;-61
2024/01/20 07:28:07;;;;;;;33.15;20.65;;;;;;;;;;5095740;28;20256;-61
2024/01/20 07:30:35;;;;;;;34.97;22.05;;;;;;;;;;5095564;28;20227;-60
2024/01/20 07:33:01;;;;;;;34.67;21.65;;;;;;;;;;5095599;28;20668;-60
2024/01/20 07:35:27;;;;;;;30.27;20.10;;;;;;;;;;5095449;28;20902;-60
2024/01/20 07:37:53;;;;;;;33.17;21.38;;;;;;;;;;5095616;28;20195;-59
2024/01/20 07:40:20;;;;;;;28.33;18.83;;;;;;;;;;5095876;28;20204;-59
2024/01/20 07:42:46;;;;;;;30.75;19.85;;;;;;;;;;5095480;28;20211;-60
2024/01/20 07:45:12;;;;;;;31.50;19.42;;;;;;;;;;5095229;28;20227;-60
2024/01/20 07:47:40;;;;;;;32.22;19.48;;;;;;;;;;5095271;28;20610;-60
2024/01/20 07:50:07;;;;;;;29.08;19.45;;;;;;;;;;5095562;28;20203;-59
2024/01/20 07:52:33;;;;;;;32.88;19.17;;;;;;;;;;5095211;28;20195;-61
2024/01/20 07:55:00;;;;;;;31.75;20.02;;;;;;;;;;5094926;28;20640;-59
2024/01/20 07:57:26;;;;;;;33.45;20.80;;;;;;;;;;5094920;28;20211;-62
2024/01/20 07:59:53;;;;;;;35.88;19.90;;;;;;;;;;5095462;28;20200;-58
2024/01/20 08:02:19;;;;;;;31.10;20.27;;;;;;;;;;5095069;28;20204;-60
2024/01/20 08:04:46;;;;;;;32.60;20.40;;;;;;;;;;5095089;28;20207;-60
2024/01/20 08:07:13;;;;;;;31.23;19.95;;;;;;;;;;5095150;28;20223;-61
2024/01/20 08:09:39;;;;;;;34.20;21.23;;;;;;;;;;5095253;28;20260;-61
2024/01/20 08:12:06;;;;;;;33.17;20.65;;;;;;;;;;5094892;28;20667;-58
2024/01/20 08:14:32;;;;;;;33.92;21.17;;;;;;;;;;5095187;28;20264;-59
2024/01/20 08:16:58;;;;;;;34.17;21.75;;;;;;;;;;5094841;28;20246;-60
2024/01/20 08:19:24;;;;;;;36.33;22.30;;;;;;;;;;5094589;28;20269;-59
2024/01/20 08:21:52;;;;;;;35.40;20.92;;;;;;;;;;5094713;28;20562;-60
2024/01/20 08:24:18;;;;;;;36.03;22.10;;;;;;;;;;5094725;28;20619;-59
2024/01/20 08:26:45;;;;;;;35.80;21.75;;;;;;;;;;5094763;28;20558;-58
2024/01/20 08:29:11;;;;;;;37.08;23.05;;;;;;;;;;5094772;28;20204;-59
2024/01/20 08:31:38;;;;;;;45.22;24.25;;;;;;;;;;5097107;28;20204;-59
2024/01/20 08:34:04;;;;;;;39.95;23.73;;;;;;;;;;5097464;28;20241;-59
2024/01/20 08:36:30;;;;;;;40.97;24.20;;;;;;;;;;5094990;28;20903;-58
2024/01/20 08:38:58;;;;;;;40.97;23.88;;;;;;;;;;5093595;28;20208;-59
2024/01/20 08:41:24;;;;;;;35.15;21.23;;;;;;;;;;5093633;28;20196;-58
2024/01/20 08:43:50;;;;;;;36.72;22.77;;;;;;;;;;5093614;28;20199;-58
2024/01/20 08:46:16;;;;;;;52.42;27.75;;;;;;;;;;5097803;28;20246;-60
2024/01/20 08:48:43;;;;;;;52.70;27.35;;;;;;;;;;5098331;28;20632;-60
2024/01/20 08:51:09;;;;;;;37.40;23.80;;;;;;;;;;5098340;28;20199;-59
2024/01/20 08:53:35;;;;;;;40.03;23.73;;;;;;;;;;5098311;28;20656;-60
2024/01/20 08:56:04;;;;;;;37.40;21.95;;;;;;;;;;5096599;28;20216;-60
2024/01/20 08:58:30;;;;;;;41.30;23.35;;;;;;;;;;5092558;28;20231;-59
2024/01/20 09:00:56;;;;;;;42.10;23.98;;;;;;;;;;5092528;28;20737;-59
2024/01/20 09:03:23;;;;;;;41.63;24.52;;;;;;;;;;5092570;28;20249;-60
2024/01/20 09:05:49;;;;;;;38.70;23.75;;;;;;;;;;5092896;28;20220;-59
2024/01/20 09:08:15;;;;;;;42.10;25.98;;;;;;;;;;5093299;28;20204;-59
2024/01/20 09:10:42;;;;;;;41.22;24.88;;;;;;;;;;5093521;28;20199;-59
2024/01/20 09:13:09;;;;;;;41.58;24.92;;;;;;;;;;5093426;28;20207;-60
2024/01/20 09:15:36;;;;;;;44.83;25.02;;;;;;;;;;5092945;28;20245;-60
2024/01/20 09:18:03;;;;;;;40.55;23.50;;;;;;;;;;5093432;28;20668;-60
2024/01/20 09:20:29;;;;;;;36.65;22.00;;;;;;;;;;5093369;28;20306;-60
2024/01/20 09:22:56;;;;;;;36.58;22.75;;;;;;;;;;5092904;28;20203;-60
2024/01/20 09:25:22;;;;;;;36.85;22.52;;;;;;;;;;5093072;28;20219;-60
2024/01/20 09:27:48;;;;;;;38.42;22.88;;;;;;;;;;5093015;28;20203;-62
2024/01/20 09:30:16;;;;;;;36.25;21.98;;;;;;;;;;5093086;28;20203;-58
2024/01/20 09:32:42;;;;;;;35.22;22.92;;;;;;;;;;5092895;28;20253;-60
2024/01/20 09:35:09;;;;;;;34.08;21.92;;;;;;;;;;5093086;28;20696;-59
2024/01/20 09:37:36;;;;;;;38.65;24.85;;;;;;;;;;5092970;28;20604;-60
2024/01/20 09:40:03;;;;;;;41.90;25.50;;;;;;;;;;5093333;28;20223;-59
2024/01/20 09:42:29;;;;;;;41.33;23.70;;;;;;;;;;5092915;28;20203;-60
2024/01/20 09:44:56;;;;;;;43.28;24.30;;;;;;;;;;5093228;28;20320;-59
2024/01/20 09:47:24;;;;;;;40.25;24.13;;;;;;;;;;5092538;28;20722;-59
2024/01/20 09:49:50;;;;;;;42.92;24.98;;;;;;;;;;5092839;28;20203;-58
2024/01/20 09:52:16;;;;;;;45.55;27.52;;;;;;;;;;5092722;28;20257;-57
2024/01/20 09:54:48;;;;;;;45.05;26.23;;;;;;;;;;5093000;28;20230;-60
2024/01/20 09:57:14;;;;;;;39.08;23.98;;;;;;;;;;5092453;28;20738;-59
2024/01/20 09:59:41;;;;;;;42.47;25.40;;;;;;;;;;5092671;28;20207;-59
2024/01/20 10:02:10;;;;;;;42.90;25.05;;;;;;;;;;5092524;28;20261;-60
2024/01/20 10:04:38;;;;;;;43.63;25.25;;;;;;;;;;5092297;28;20252;-59
2024/01/20 10:07:04;;;;;;;43.00;26.65;;;;;;;;;;5092688;28;20220;-58
2024/01/20 10:09:31;;;;;;;46.53;26.98;;;;;;;;;;5092532;28;20199;-59
2024/01/20 10:11:58;;;;;;;51.47;27.45;;;;;;;;;;5092361;28;20683;-59
2024/01/20 10:14:25;;;;;;;45.75;26.15;;;;;;;;;;5092477;28;20287;-58
2024/01/20 10:16:51;;;;;;;44.70;26.92;;;;;;;;;;5092311;28;20266;-59
2024/01/20 10:19:17;;;;;;;45.25;26.05;;;;;;;;;;5092309;28;20222;-59
2024/01/20 10:21:45;;;;;;;46.60;26.92;;;;;;;;;;5092396;28;20219;-59
2024/01/20 10:24:11;;;;;;;44.83;26.88;;;;;;;;;;5093137;28;20200;-59
2024/01/20 10:26:48;;;;;;;45.10;25.38;;;;;;;;;;5093553;28;20219;-59
2024/01/20 10:29:15;;;;;;;42.42;26.08;;;;;;;;;;5092964;28;20622;-59
2024/01/20 10:31:41;;;;;;;42.42;25.98;;;;;;;;;;5092551;28;20628;-59
2024/01/20 10:34:07;;;;;;;41.80;25.20;;;;;;;;;;5092143;28;20200;-59
2024/01/20 10:36:33;;;;;;;44.22;25.77;;;;;;;;;;5092092;28;20215;-59
2024/01/20 10:39:04;;;;;;;52.97;28.63;;;;;;;;;;5092002;28;20199;-59
2024/01/20 10:41:30;;;;;;;46.88;27.40;;;;;;;;;;5092029;28;20196;-59
2024/01/20 10:44:01;;;;;;;44.60;26.92;;;;;;;;;;5091858;28;20252;-59
2024/01/20 10:46:29;;;;;;;50.70;28.45;;;;;;;;;;5091663;28;20223;-61
2024/01/20 10:48:58;;;;;;;42.70;26.55;;;;;;;;;;5091945;28;20298;-61
2024/01/20 10:51:26;;;;;;;50.08;27.25;;;;;;;;;;5092214;28;20573;-58
2024/01/20 10:53:52;;;;;;;47.30;27.90;;;;;;;;;;5091894;28;20207;-59
2024/01/20 10:56:20;;;;;;;42.50;26.38;;;;;;;;;;5091864;28;20277;-59
2024/01/20 10:58:49;;;;;;;46.45;28.30;;;;;;;;;;5091751;28;20619;-59
2024/01/20 11:01:15;;;;;;;46.80;26.88;;;;;;;;;;5092140;28;20253;-60
2024/01/20 11:03:42;;;;;;;46.60;27.17;;;;;;;;;;5091630;28;20611;-61
2024/01/20 11:06:18;;;;;;;46.80;27.75;;;;;;;;;;5091511;28;20634;-59
2024/01/20 11:08:48;;;;;;;47.38;27.98;;;;;;;;;;5091717;28;20199;-59
2024/01/20 11:11:14;;;;;;;48.80;27.20;;;;;;;;;;5091659;28;20204;-60
2024/01/20 11:13:45;;;;;;;46.03;26.50;;;;;;;;;;5091815;28;20249;-60
2024/01/20 11:16:18;;;;;;;48.80;25.13;;;;;;;;;;5091952;28;20245;-59
2024/01/20 11:18:45;;;;;;;37.47;24.05;;;;;;;;;;5091624;28;20195;-59
2024/01/20 11:21:14;;;;;;;41.60;25.33;;;;;;;;;;5091768;28;20440;-60
2024/01/20 11:23:40;;;;;;;44.30;26.75;;;;;;;;;;5091615;28;20204;-59
2024/01/20 11:26:11;;;;;;;41.97;26.50;;;;;;;;;;5091671;28;20223;-60
2024/01/20 11:28:37;;;;;;;50.17;28.10;;;;;;;;;;5091674;28;20200;-59
2024/01/20 11:31:04;;;;;;;42.28;26.25;;;;;;;;;;5091661;28;20222;-58
2024/01/20 11:33:31;;;;;;;43.20;25.75;;;;;;;;;;5091388;28;20196;-60
2024/01/20 11:35:57;;;;;;;43.13;24.50;;;;;;;;;;5091879;28;20223;-60
2024/01/20 11:38:23;;;;;;;38.78;24.33;;;;;;;;;;5085928;28;20196;-63
2024/01/20 11:40:59;;;;;;;40.38;25.27;;;;;;;;;;5088884;28;20216;-63
2024/01/20 11:43:26;;;;;;;42.63;25.52;;;;;;;;;;5089029;28;20286;-62
2024/01/20 11:45:52;;;;;;;40.60;25.67;;;;;;;;;;5089210;28;20302;-62
2024/01/20 11:48:21;;;;;;;40.80;26.25;;;;;;;;;;5089111;28;20703;-63
2024/01/20 11:50:47;;;;;;;41.80;25.30;;;;;;;;;;5089441;28;20284;-61
2024/01/20 11:53:14;;;;;;;38.53;23.67;;;;;;;;;;5089281;28;20680;-61
2024/01/20 11:55:40;;;;;;;39.05;24.52;;;;;;;;;;5089228;28;20223;-61
2024/01/20 11:58:06;;;;;;;43.20;24.90;;;;;;;;;;5088955;28;20207;-61
2024/01/20 12:00:32;;;;;;;40.35;24.70;;;;;;;;;;5089157;28;20212;-60
2024/01/20 12:02:59;;;;;;;34.60;23.65;;;;;;;;;;5088767;28;20204;-60
2024/01/20 12:05:28;;;;;;;41.55;24.88;;;;;;;;;;5089012;28;20248;-61
2024/01/20 12:07:54;;;;;;;43.75;23.77;;;;;;;;;;5088796;28;20223;-62
2024/01/20 12:10:20;;;;;;;35.22;23.27;;;;;;;;;;5089154;28;20273;-60
2024/01/20 12:12:46;;;;;;;35.60;23.60;;;;;;;;;;5088791;28;20215;-61
2024/01/20 12:15:15;;;;;;;37.00;23.92;;;;;;;;;;5085895;28;20207;-61
2024/01/20 12:17:41;;;;;;;37.42;25.25;;;;;;;;;;5088480;28;20208;-61
2024/01/20 12:20:08;;;;;;;36.13;23.10;;;;;;;;;;5088231;28;20211;-62
2024/01/20 12:22:36;;;;;;;34.03;23.65;;;;;;;;;;5088142;28;20204;-62
2024/01/20 12:25:03;;;;;;;33.50;21.48;;;;;;;;;;5088719;28;20208;-60
2024/01/20 12:27:29;;;;;;;30.95;21.08;;;;;;;;;;5088129;28;20600;-59
2024/01/20 12:29:55;;;;;;;31.98;22.17;;;;;;;;;;5087742;28;20207;-61
2024/01/20 12:32:21;;;;;;;31.42;21.90;;;;;;;;;;5087846;28;20230;-60
2024/01/20 12:34:48;;;;;;;31.52;22.05;;;;;;;;;;5087747;28;20257;-59
2024/01/20 12:37:14;;;;;;;31.52;21.65;;;;;;;;;;5068719;28;20281;-60
2024/01/20 12:39:41;;;;;;;35.00;23.50;;;;;;;;;;5068392;28;20416;-58
2024/01/20 12:42:08;;;;;;;32.75;21.50;;;;;;;;;;5068021;28;20211;-59
2024/01/20 12:44:34;;;;;;;32.45;20.90;;;;;;;;;;5068094;28;20216;-61
2024/01/20 12:47:00;;;;;;;33.65;22.92;;;;;;;;;;5085584;28;20239;-62
2024/01/20 12:49:26;;;;;;;36.63;22.00;;;;;;;;;;5087268;28;20212;-61
2024/01/20 12:51:52;;;;;;;34.92;22.80;;;;;;;;;;5088064;28;20216;-60
2024/01/20 12:54:19;;;;;;;36.28;22.23;;;;;;;;;;5088132;28;20280;-61
2024/01/20 12:56:47;;;;;;;34.35;22.80;;;;;;;;;;5087688;28;20223;-61
2024/01/20 12:59:13;;;;;;;38.30;23.98;;;;;;;;;;5087889;28;20241;-60
2024/01/20 13:01:40;;;;;;;35.22;23.60;;;;;;;;;;5088142;28;20211;-61
2024/01/20 13:04:06;;;;;;;51.75;23.75;;;;;;;;;;5088208;28;20211;-60
2024/01/20 13:06:32;;;;;;;32.85;22.63;;;;;;;;;;5088108;28;20280;-61
2024/01/20 13:08:58;;;;;;;30.60;21.52;;;;;;;;;;5087692;28;20218;-60
2024/01/20 13:11:24;;;;;;;31.52;21.67;;;;;;;;;;5087855;28;20207;-61
2024/01/20 13:13:52;;;;;;;32.50;21.00;;;;;;;;;;5087332;28;20203;-62
2024/01/20 13:16:18;;;;;;;25.77;19.00;;;;;;;;;;5087645;28;20227;-62
2024/01/20 13:18:44;;;;;;;29.30;20.83;;;;;;;;;;5087976;28;20285;-61
2024/01/20 13:21:11;;;;;;;30.65;20.35;;;;;;;;;;5087997;28;20213;-62
2024/01/20 13:23:37;;;;;;;30.63;20.60;;;;;;;;;;5087859;28;20241;-62
2024/01/20 13:26:04;;;;;;;28.92;19.90;;;;;;;;;;5087488;28;20223;-61
2024/01/20 13:28:33;;;;;;;29.55;19.23;;;;;;;;;;5087233;28;20215;-61
2024/01/20 13:31:00;;;;;;;29.55;20.45;;;;;;;;;;5087109;28;20208;-60
2024/01/20 13:33:27;;;;;;;29.70;20.98;;;;;;;;;;5087477;28;20676;-60
2024/01/20 13:35:53;;;;;;;30.98;20.98;;;;;;;;;;5083303;28;20223;-62
2024/01/20 13:38:19;;;;;;;31.67;21.52;;;;;;;;;;5087147;28;20215;-59
2024/01/20 13:40:46;;;;;;;30.55;21.00;;;;;;;;;;5086935;28;20764;-60
2024/01/20 13:43:12;;;;;;;30.35;21.85;;;;;;;;;;5087235;28;20610;-61
2024/01/20 13:45:38;;;;;;;27.95;20.30;;;;;;;;;;5086872;28;20220;-60
2024/01/20 13:48:07;;;;;;;28.25;20.75;;;;;;;;;;5087260;28;20227;-58
2024/01/20 13:50:33;;;;;;;28.88;20.77;;;;;;;;;;5087377;28;20215;-59
2024/01/20 13:52:59;;;;;;;32.00;21.38;;;;;;;;;;5086989;28;20564;-61
2024/01/20 13:55:26;;;;;;;32.80;22.25;;;;;;;;;;5087057;28;20215;-61
2024/01/20 13:57:52;;;;;;;36.60;20.55;;;;;;;;;;5089182;28;20625;-59
2024/01/20 14:00:18;;;;;;;32.83;20.90;;;;;;;;;;5088945;28;20676;-61
2024/01/20 14:02:46;;;;;;;31.00;21.00;;;;;;;;;;5088336;28;20763;-60
2024/01/20 14:05:14;;;;;;;30.95;20.92;;;;;;;;;;5086673;28;20326;-60
2024/01/20 14:07:40;;;;;;;31.40;21.17;;;;;;;;;;5086377;28;20261;-60
2024/01/20 14:10:07;;;;;;;31.15;20.25;;;;;;;;;;5086660;28;20598;-60
2024/01/20 14:12:33;;;;;;;33.05;21.13;;;;;;;;;;5086627;28;20207;-60